Time;durP1;ratioP1;P1;durP2;ratioP2;P2;SDS_P1;SDS_P2;PMS_P1;PMS_P2;Temp;Humidity;BMP_temperature;BMP_pressure;BME280_temperature;BME280_humidity;BME280_pressure;Samples;Min_cycle;Max_cycle;Signal;HPM_P1;HPM_P2
2022/02/18 00:02:38;0.00;0.00;0.62;0.00;0.00;0.62;3.43;1.70;;;22.00;24.50;;;;;;2250374;61;20357;-62
2022/02/18 00:05:22;0.00;0.00;0.62;0.00;0.00;0.62;5.83;2.00;;;21.90;24.50;;;;;;2249954;61;20360;-62
2022/02/18 00:08:07;0.00;0.00;0.62;0.00;0.00;0.62;4.93;1.53;;;21.90;24.60;;;;;;2249403;61;20376;-62
2022/02/18 00:10:52;0.00;0.00;0.62;0.00;0.00;0.62;3.30;1.70;;;21.90;24.60;;;;;;2250279;61;20401;-62
2022/02/18 00:13:37;0.00;0.00;0.62;0.00;0.00;0.62;4.37;1.53;;;21.80;24.40;;;;;;2249815;61;20360;-62
2022/02/18 00:16:23;0.00;0.00;0.62;0.00;0.00;0.62;4.70;1.73;;;21.80;24.40;;;;;;2249138;61;20365;-61
2022/02/18 00:19:07;0.00;0.00;0.62;0.00;0.00;0.62;3.63;1.67;;;21.70;24.40;;;;;;2249754;61;20452;-62
2022/02/18 00:21:53;0.00;0.00;0.62;0.00;0.00;0.62;2.80;1.37;;;21.70;24.50;;;;;;2250157;61;20388;-63
2022/02/18 00:24:37;0.00;0.00;0.62;0.00;0.00;0.62;3.53;1.57;;;21.60;24.50;;;;;;2249958;61;20752;-62
2022/02/18 00:27:22;0.00;0.00;0.62;0.00;0.00;0.62;2.90;1.27;;;21.60;24.70;;;;;;2249780;61;20369;-62
2022/02/18 00:30:10;0.00;0.00;0.62;0.00;0.00;0.62;2.83;1.40;;;21.60;24.80;;;;;;2249021;61;20423;-62
2022/02/18 00:32:56;0.00;0.00;0.62;0.00;0.00;0.62;3.70;1.97;;;21.60;24.90;;;;;;2250200;61;20451;-61
2022/02/18 00:35:41;0.00;0.00;0.62;0.00;0.00;0.62;3.13;1.80;;;21.60;25.00;;;;;;2249624;61;20481;-65
2022/02/18 00:38:26;0.00;0.00;0.62;0.00;0.00;0.62;4.80;1.67;;;21.60;25.10;;;;;;2249783;61;20740;-62
2022/02/18 00:41:13;0.00;0.00;0.62;0.00;0.00;0.62;4.70;1.97;;;21.60;25.10;;;;;;2249671;61;20384;-61
2022/02/18 00:43:57;0.00;0.00;0.62;0.00;0.00;0.62;4.00;1.40;;;21.60;25.10;;;;;;2249676;61;20356;-61
2022/02/18 00:46:42;0.00;0.00;0.62;0.00;0.00;0.62;4.30;1.73;;;21.60;25.10;;;;;;2249507;61;20364;-62
2022/02/18 00:49:28;0.00;0.00;0.62;0.00;0.00;0.62;2.27;1.67;;;21.60;25.20;;;;;;2249807;61;20592;-60
2022/02/18 00:52:13;0.00;0.00;0.62;0.00;0.00;0.62;3.17;1.87;;;21.60;25.20;;;;;;2249020;61;20628;-61
2022/02/18 00:54:57;0.00;0.00;0.62;0.00;0.00;0.62;3.60;1.50;;;21.60;25.10;;;;;;2250067;61;20587;-62
2022/02/18 00:57:42;0.00;0.00;0.62;0.00;0.00;0.62;2.67;1.50;;;21.60;25.10;;;;;;2249400;61;20412;-62
2022/02/18 01:00:27;0.00;0.00;0.62;0.00;0.00;0.62;3.73;1.47;;;21.50;24.80;;;;;;2249502;61;20384;-62
2022/02/18 01:03:12;0.00;0.00;0.62;0.00;0.00;0.62;4.20;1.67;;;21.50;24.70;;;;;;2250103;61;20725;-62
2022/02/18 01:05:58;0.00;0.00;0.62;0.00;0.00;0.62;2.60;1.40;;;21.50;24.60;;;;;;2249749;61;20381;-61
2022/02/18 01:08:42;0.00;0.00;0.62;0.00;0.00;0.62;4.43;1.60;;;21.40;24.50;;;;;;2249251;61;20379;-62
2022/02/18 01:11:27;0.00;0.00;0.62;0.00;0.00;0.62;4.80;1.73;;;21.40;24.50;;;;;;2249698;61;20567;-63
2022/02/18 01:14:12;0.00;0.00;0.62;0.00;0.00;0.62;5.37;1.60;;;21.30;24.50;;;;;;2248797;61;20357;-61
2022/02/18 01:16:57;0.00;0.00;0.62;0.00;0.00;0.62;2.97;1.67;;;21.20;24.50;;;;;;2249510;61;20760;-61
2022/02/18 01:19:42;0.00;0.00;0.62;0.00;0.00;0.62;5.10;1.77;;;21.20;24.70;;;;;;2249120;61;20424;-61
2022/02/18 01:22:28;0.00;0.00;0.62;0.00;0.00;0.62;1.80;1.00;;;21.20;24.70;;;;;;2249294;61;20361;-62
2022/02/18 01:25:13;0.00;0.00;0.62;0.00;0.00;0.62;4.03;1.43;;;21.10;24.70;;;;;;2249712;61;20712;-62
2022/02/18 01:27:57;0.00;0.00;0.62;0.00;0.00;0.62;4.33;1.50;;;21.10;24.80;;;;;;2249526;61;20763;-63
2022/02/18 01:30:42;0.00;0.00;0.62;0.00;0.00;0.62;3.40;1.23;;;21.10;24.80;;;;;;2248921;61;20437;-60
2022/02/18 01:33:26;0.00;0.00;0.62;0.00;0.00;0.62;2.43;1.40;;;21.10;24.90;;;;;;2249230;61;20708;-62
2022/02/18 01:36:11;0.00;0.00;0.62;0.00;0.00;0.62;2.57;1.30;;;21.00;24.80;;;;;;2249233;61;20364;-63
2022/02/18 01:38:57;0.00;0.00;0.62;0.00;0.00;0.62;2.93;1.40;;;21.00;24.90;;;;;;2249851;61;20454;-62
2022/02/18 01:41:41;0.00;0.00;0.62;0.00;0.00;0.62;4.33;1.77;;;21.00;24.90;;;;;;2249610;61;20371;-62
2022/02/18 01:44:35;0.00;0.00;0.62;0.00;0.00;0.62;4.00;1.03;;;21.00;24.90;;;;;;2248954;61;20613;-63
2022/02/18 01:47:22;0.00;0.00;0.62;0.00;0.00;0.62;4.60;1.50;;;20.90;24.90;;;;;;2249561;61;20404;-60
2022/02/18 01:50:08;0.00;0.00;0.62;0.00;0.00;0.62;1.90;1.03;;;20.90;24.90;;;;;;2248863;61;20415;-62
2022/02/18 01:52:55;0.00;0.00;0.62;0.00;0.00;0.62;5.37;1.50;;;20.80;24.90;;;;;;2248882;61;20388;-61
2022/02/18 01:55:41;0.00;0.00;0.62;0.00;0.00;0.62;4.37;1.40;;;20.80;25.00;;;;;;2249643;61;20388;-62
2022/02/18 01:58:27;0.00;0.00;0.62;0.00;0.00;0.62;3.07;1.30;;;20.80;25.50;;;;;;2248999;61;20384;-61
2022/02/18 02:01:13;0.00;0.00;0.62;0.00;0.00;0.62;2.97;1.20;;;20.80;25.00;;;;;;2250003;61;20575;-62
2022/02/18 02:03:57;0.00;0.00;0.62;0.00;0.00;0.62;2.50;1.07;;;20.80;25.10;;;;;;2249097;61;20360;-62
2022/02/18 02:06:42;0.00;0.00;0.62;0.00;0.00;0.62;2.87;1.20;;;20.80;25.20;;;;;;2249209;61;20363;-60
2022/02/18 02:09:08;0.00;0.00;0.62;0.00;0.00;0.62;1.80;1.10;;;20.70;25.20;;;;;;2249398;61;20445;-61
2022/02/18 02:11:36;0.00;0.00;0.62;0.00;0.00;0.62;2.43;1.00;;;20.70;25.20;;;;;;2248727;61;20380;-61
2022/02/18 02:14:21;0.00;0.00;0.62;0.00;0.00;0.62;3.10;1.70;;;20.80;25.30;;;;;;2248765;61;20360;-62
2022/02/18 02:17:05;0.00;0.00;0.62;0.00;0.00;0.62;2.73;1.30;;;20.80;25.30;;;;;;2249372;61;20409;-62
2022/02/18 02:19:50;0.00;0.00;0.62;0.00;0.00;0.62;2.57;1.53;;;20.80;25.30;;;;;;2249236;61;20380;-62
2022/02/18 02:22:38;0.00;0.00;0.62;0.00;0.00;0.62;2.40;1.30;;;20.80;25.30;;;;;;2248888;61;20353;-61
2022/02/18 02:25:34;0.00;0.00;0.62;0.00;0.00;0.62;4.03;1.70;;;20.70;25.20;;;;;;2249058;61;20586;-62
2022/02/18 02:28:21;0.00;0.00;0.62;0.00;0.00;0.62;3.10;1.30;;;20.80;25.30;;;;;;2248460;61;21092;-62
2022/02/18 02:31:07;0.00;0.00;0.62;0.00;0.00;0.62;2.80;1.37;;;20.70;25.30;;;;;;2249453;61;20356;-63
2022/02/18 02:33:55;0.00;0.00;0.62;0.00;0.00;0.62;2.50;1.40;;;20.70;25.30;;;;;;2248795;61;20432;-62
2022/02/18 02:36:44;0.00;0.00;0.62;0.00;0.00;0.62;1.83;1.00;;;20.70;25.30;;;;;;2248729;61;20443;-62
2022/02/18 02:39:33;0.00;0.00;0.62;0.00;0.00;0.62;3.10;1.43;;;20.70;25.20;;;;;;2249429;61;20392;-62
2022/02/18 02:42:19;0.00;0.00;0.62;0.00;0.00;0.62;3.73;1.27;;;20.70;25.20;;;;;;2249145;61;20368;-61
2022/02/18 02:45:10;0.00;0.00;0.62;0.00;0.00;0.62;5.10;1.80;;;20.70;25.30;;;;;;2248908;61;20368;-62
2022/02/18 02:47:55;0.00;0.00;0.62;0.00;0.00;0.62;3.30;1.57;;;20.60;25.20;;;;;;2248895;61;20400;-63
2022/02/18 02:51:04;0.00;0.00;0.62;0.00;0.00;0.62;2.27;1.70;;;20.60;25.20;;;;;;2248703;61;20359;-62
2022/02/18 02:53:50;0.00;0.00;0.62;0.00;0.00;0.62;3.23;1.70;;;20.60;25.20;;;;;;2249460;61;20399;-62
2022/02/18 02:56:36;0.00;0.00;0.62;0.00;0.00;0.62;2.53;1.70;;;20.60;25.20;;;;;;2248980;61;20813;-62
2022/02/18 02:59:21;0.00;0.00;0.62;0.00;0.00;0.62;2.47;1.67;;;20.60;25.20;;;;;;2248625;61;20420;-62
2022/02/18 03:02:06;0.00;0.00;0.62;0.00;0.00;0.62;2.93;1.70;;;20.60;25.20;;;;;;2249420;61;20400;-62
2022/02/18 03:04:51;0.00;0.00;0.62;0.00;0.00;0.62;5.00;1.97;;;20.50;25.20;;;;;;2249574;61;20639;-62
2022/02/18 03:07:37;0.00;0.00;0.62;0.00;0.00;0.62;3.67;1.70;;;20.50;25.10;;;;;;2249385;61;20356;-62
2022/02/18 03:10:33;0.00;0.00;0.62;0.00;0.00;0.62;4.07;2.07;;;20.50;25.20;;;;;;2248927;61;20377;-62
2022/02/18 03:13:23;0.00;0.00;0.62;0.00;0.00;0.62;3.67;1.70;;;20.50;25.20;;;;;;2248556;61;20381;-62
2022/02/18 03:16:08;0.00;0.00;0.62;0.00;0.00;0.62;4.07;2.17;;;20.50;25.70;;;;;;2249446;61;20559;-62
2022/02/18 03:18:53;0.00;0.00;0.62;0.00;0.00;0.62;4.87;1.80;;;20.40;25.00;;;;;;2248957;61;20484;-62
2022/02/18 03:21:38;0.00;0.00;0.62;0.00;0.00;0.62;3.93;1.70;;;20.40;25.10;;;;;;2248551;61;21056;-62
2022/02/18 03:24:23;0.00;0.00;0.62;0.00;0.00;0.62;4.13;1.90;;;20.40;25.10;;;;;;2249353;61;20742;-62
2022/02/18 03:27:10;0.00;0.00;0.62;0.00;0.00;0.62;4.77;2.10;;;20.40;25.10;;;;;;2248729;61;20453;-62
2022/02/18 03:30:00;0.00;0.00;0.62;0.00;0.00;0.62;4.23;1.90;;;20.40;25.00;;;;;;2249405;61;20744;-62
2022/02/18 03:32:50;0.00;0.00;0.62;0.00;0.00;0.62;4.40;1.93;;;20.30;25.00;;;;;;2248710;61;20768;-61
2022/02/18 03:35:42;0.00;0.00;0.62;0.00;0.00;0.62;5.27;2.27;;;20.30;25.00;;;;;;2248603;61;20361;-61
2022/02/18 03:38:28;0.00;0.00;0.62;0.00;0.00;0.62;4.20;2.17;;;20.30;25.00;;;;;;2249035;61;20637;-60
2022/02/18 03:41:13;0.00;0.00;0.62;0.00;0.00;0.62;6.23;2.23;;;20.20;25.00;;;;;;2248835;61;20428;-60
2022/02/18 03:43:58;0.00;0.00;0.62;0.00;0.00;0.62;5.33;2.10;;;20.20;25.00;;;;;;2248708;61;20476;-62
2022/02/18 03:46:49;0.00;0.00;0.62;0.00;0.00;0.62;4.60;1.83;;;20.20;25.00;;;;;;2248736;61;20764;-62
2022/02/18 03:49:34;0.00;0.00;0.62;0.00;0.00;0.62;5.87;1.60;;;20.20;25.10;;;;;;2248316;61;20380;-62
2022/02/18 03:52:20;0.00;0.00;0.62;0.00;0.00;0.62;4.43;2.00;;;20.20;25.10;;;;;;2249253;61;20393;-61
2022/02/18 03:55:06;0.00;0.00;0.62;0.00;0.00;0.62;4.93;2.13;;;20.10;25.10;;;;;;2249024;61;20360;-62
2022/02/18 03:57:52;0.00;0.00;0.62;0.00;0.00;0.62;4.27;1.90;;;20.10;25.10;;;;;;2248463;61;20591;-62
2022/02/18 04:00:40;0.00;0.00;0.62;0.00;0.00;0.62;3.13;1.57;;;20.10;25.10;;;;;;2249368;61;20360;-62
2022/02/18 04:03:26;0.00;0.00;0.62;0.00;0.00;0.62;5.43;2.10;;;20.10;25.20;;;;;;2248691;61;20365;-62
2022/02/18 04:06:30;0.00;0.00;0.62;0.00;0.00;0.62;4.90;2.23;;;20.10;25.20;;;;;;2248819;61;20376;-62
2022/02/18 04:09:25;0.00;0.00;0.62;0.00;0.00;0.62;4.10;1.93;;;20.10;25.20;;;;;;2248673;61;20460;-60
2022/02/18 04:12:16;0.00;0.00;0.62;0.00;0.00;0.62;7.00;1.80;;;20.10;25.30;;;;;;2248892;61;20428;-62
2022/02/18 04:15:01;0.00;0.00;0.62;0.00;0.00;0.62;5.77;2.07;;;20.10;25.30;;;;;;2249335;61;20610;-62
2022/02/18 04:17:45;0.00;0.00;0.62;0.00;0.00;0.62;4.60;1.57;;;20.10;25.30;;;;;;2248310;61;20392;-62
2022/02/18 04:20:47;0.00;0.00;0.62;0.00;0.00;0.62;5.50;1.80;;;20.10;25.30;;;;;;2248668;61;20364;-62
2022/02/18 04:23:46;0.00;0.00;0.62;0.00;0.00;0.62;4.97;1.73;;;20.10;25.30;;;;;;2248614;61;20360;-63
2022/02/18 04:26:31;0.00;0.00;0.62;0.00;0.00;0.62;4.27;2.10;;;20.10;25.40;;;;;;2248335;61;20400;-61
2022/02/18 04:29:16;0.00;0.00;0.62;0.00;0.00;0.62;3.73;1.70;;;20.10;25.40;;;;;;2249457;61;20458;-61
2022/02/18 04:32:01;0.00;0.00;0.62;0.00;0.00;0.62;3.73;1.67;;;20.10;25.40;;;;;;2249555;61;20400;-61
2022/02/18 04:34:45;0.00;0.00;0.62;0.00;0.00;0.62;3.80;2.07;;;20.10;25.40;;;;;;2249561;61;20595;-62
2022/02/18 04:37:31;0.00;0.00;0.62;0.00;0.00;0.62;4.53;2.17;;;20.10;25.40;;;;;;2250117;61;20364;-62
2022/02/18 04:40:17;0.00;0.00;0.62;0.00;0.00;0.62;2.50;1.57;;;20.10;25.40;;;;;;2249816;61;20380;-62
2022/02/18 04:43:02;0.00;0.00;0.62;0.00;0.00;0.62;4.40;1.70;;;20.10;25.40;;;;;;2249457;61;20433;-61
2022/02/18 04:45:48;0.00;0.00;0.62;0.00;0.00;0.62;4.57;2.20;;;20.10;25.40;;;;;;2249786;61;20440;-62
2022/02/18 04:48:34;0.00;0.00;0.62;0.00;0.00;0.62;3.67;1.70;;;20.10;25.40;;;;;;2249337;61;20422;-62
2022/02/18 04:51:19;0.00;0.00;0.62;0.00;0.00;0.62;4.60;2.40;;;20.10;25.40;;;;;;2250061;61;20794;-62
2022/02/18 04:54:06;0.00;0.00;0.62;0.00;0.00;0.62;3.57;1.97;;;20.10;25.40;;;;;;2249729;61;20462;-62
2022/02/18 04:56:51;0.00;0.00;0.62;0.00;0.00;0.62;6.03;2.10;;;20.10;25.40;;;;;;2249538;61;20361;-62
2022/02/18 04:59:36;0.00;0.00;0.62;0.00;0.00;0.62;4.53;1.80;;;20.10;25.40;;;;;;2250164;61;20431;-62
2022/02/18 05:02:21;0.00;0.00;0.62;0.00;0.00;0.62;4.60;2.10;;;20.10;25.40;;;;;;2249637;61;20417;-62
2022/02/18 05:05:06;0.00;0.00;0.62;0.00;0.00;0.62;6.70;2.60;;;20.10;25.50;;;;;;2249477;61;20365;-59
2022/02/18 05:07:51;0.00;0.00;0.62;0.00;0.00;0.62;6.40;2.53;;;20.10;25.50;;;;;;2249546;61;20379;-62
2022/02/18 05:10:37;0.00;0.00;0.62;0.00;0.00;0.62;4.43;2.30;;;20.10;25.40;;;;;;2249901;61;20392;-64
2022/02/18 05:13:21;0.00;0.00;0.62;0.00;0.00;0.62;7.10;2.07;;;20.00;25.30;;;;;;2250074;61;20248;-64
2022/02/18 05:16:06;0.00;0.00;0.62;0.00;0.00;0.62;5.20;2.07;;;20.00;25.30;;;;;;2249799;61;20397;-63
2022/02/18 05:18:52;0.00;0.00;0.62;0.00;0.00;0.62;4.30;2.00;;;20.00;25.40;;;;;;2249200;61;20376;-62
2022/02/18 05:21:37;0.00;0.00;0.62;0.00;0.00;0.62;4.00;1.87;;;20.00;25.40;;;;;;2249894;61;20401;-62
2022/02/18 05:24:22;0.00;0.00;0.62;0.00;0.00;0.62;6.07;2.10;;;20.00;25.40;;;;;;2249457;61;20362;-62
2022/02/18 05:27:08;0.00;0.00;0.62;0.00;0.00;0.62;2.73;1.70;;;20.00;25.40;;;;;;2249258;61;20361;-60
2022/02/18 05:29:53;0.00;0.00;0.62;0.00;0.00;0.62;3.57;1.70;;;20.00;25.50;;;;;;2249706;61;20440;-63
2022/02/18 05:32:37;0.00;0.00;0.62;0.00;0.00;0.62;4.50;2.40;;;20.00;25.50;;;;;;2249714;61;20420;-61
2022/02/18 05:35:22;0.00;0.00;0.62;0.00;0.00;0.62;4.03;2.27;;;20.00;25.50;;;;;;2249504;61;20393;-61
2022/02/18 05:38:06;0.00;0.00;0.62;0.00;0.00;0.62;4.23;1.80;;;20.00;25.50;;;;;;2249564;61;20400;-61
2022/02/18 05:40:51;0.00;0.00;0.62;0.00;0.00;0.62;5.07;2.33;;;20.00;26.10;;;;;;2248978;61;20617;-62
2022/02/18 05:43:37;0.00;0.00;0.62;0.00;0.00;0.62;4.90;2.27;;;20.00;25.50;;;;;;2249994;61;20768;-65
2022/02/18 05:46:22;0.00;0.00;0.62;0.00;0.00;0.62;2.83;2.03;;;20.00;25.50;;;;;;2249275;61;20363;-62
2022/02/18 05:49:06;0.00;0.00;0.62;0.00;0.00;0.62;5.17;2.13;;;20.00;25.50;;;;;;2249212;61;20641;-61
2022/02/18 05:51:51;0.00;0.00;0.62;0.00;0.00;0.62;5.50;2.40;;;19.90;25.40;;;;;;2249913;61;20444;-61
2022/02/18 05:54:36;0.00;0.00;0.62;0.00;0.00;0.62;5.90;2.20;;;19.90;25.30;;;;;;2249730;61;20400;-62
2022/02/18 05:57:21;0.00;0.00;0.62;0.00;0.00;0.62;4.73;2.40;;;19.90;25.40;;;;;;2249374;61;20349;-59
2022/02/18 06:00:09;0.00;0.00;0.62;0.00;0.00;0.62;4.53;2.10;;;19.80;25.30;;;;;;2249487;61;20795;-61
2022/02/18 06:03:00;0.00;0.00;0.62;0.00;0.00;0.62;3.80;1.60;;;19.80;25.40;;;;;;2249101;61;20797;-61
2022/02/18 06:05:44;0.00;0.00;0.62;0.00;0.00;0.62;3.20;1.67;;;19.80;25.40;;;;;;2250117;61;20711;-61
2022/02/18 06:08:29;0.00;0.00;0.62;0.00;0.00;0.62;5.03;1.90;;;19.80;25.50;;;;;;2248898;61;20633;-63
2022/02/18 06:11:13;0.00;0.00;0.62;0.00;0.00;0.62;4.40;1.80;;;19.80;25.60;;;;;;2249452;61;20396;-63
2022/02/18 06:13:58;0.00;0.00;0.62;0.00;0.00;0.62;4.33;2.00;;;19.90;25.70;;;;;;2249876;61;20631;-63
2022/02/18 06:16:44;0.00;0.00;0.62;0.00;0.00;0.62;2.17;1.30;;;19.90;25.70;;;;;;2249617;61;20364;-61
2022/02/18 06:19:29;0.00;0.00;0.62;0.00;0.00;0.62;3.70;2.20;;;19.90;25.70;;;;;;2249526;61;20385;-63
2022/02/18 06:22:15;0.00;0.00;0.62;0.00;0.00;0.62;2.20;1.50;;;19.90;25.70;;;;;;2249460;61;20364;-62
2022/02/18 06:25:00;0.00;0.00;0.62;0.00;0.00;0.62;4.23;1.50;;;19.90;25.70;;;;;;2249085;61;20404;-61
2022/02/18 06:27:44;0.00;0.00;0.62;0.00;0.00;0.62;5.63;1.70;;;20.00;25.80;;;;;;2249942;61;20364;-63
2022/02/18 06:30:31;0.00;0.00;0.62;0.00;0.00;0.62;5.20;1.60;;;19.90;25.70;;;;;;2249221;61;20744;-61
2022/02/18 06:33:17;0.00;0.00;0.62;0.00;0.00;0.62;2.70;1.40;;;20.00;25.80;;;;;;2248910;61;20392;-61
2022/02/18 06:36:03;0.00;0.00;0.62;0.00;0.00;0.62;2.13;1.50;;;20.00;25.80;;;;;;2249476;61;20368;-61
2022/02/18 06:38:47;0.00;0.00;0.62;0.00;0.00;0.62;2.37;1.37;;;20.00;25.80;;;;;;2249240;61;20420;-63
2022/02/18 06:41:32;0.00;0.00;0.62;0.00;0.00;0.62;4.07;1.50;;;20.00;25.80;;;;;;2249396;61;20412;-63
2022/02/18 06:44:17;0.00;0.00;0.62;0.00;0.00;0.62;2.60;1.23;;;20.10;25.80;;;;;;2249238;61;20365;-61
2022/02/18 06:47:02;0.00;0.00;0.62;0.00;0.00;0.62;2.50;1.33;;;20.10;25.80;;;;;;2249242;61;20361;-61
2022/02/18 06:49:48;0.00;0.00;0.62;0.00;0.00;0.62;2.87;1.37;;;20.10;25.80;;;;;;2249941;61;20501;-61
2022/02/18 06:52:32;0.00;0.00;0.62;0.00;0.00;0.62;2.70;1.27;;;20.10;25.80;;;;;;2249083;61;20396;-61
2022/02/18 06:55:21;0.00;0.00;0.62;0.00;0.00;0.62;3.27;1.80;;;20.10;25.80;;;;;;2249346;61;20392;-63
2022/02/18 06:58:06;0.00;0.00;0.62;0.00;0.00;0.62;3.70;1.30;;;20.20;25.90;;;;;;2249604;61;20400;-62
2022/02/18 07:00:51;0.00;0.00;0.62;0.00;0.00;0.62;2.33;1.23;;;20.20;25.80;;;;;;2249337;61;20408;-63
2022/02/18 07:03:36;0.00;0.00;0.62;0.00;0.00;0.62;2.57;1.43;;;20.20;25.90;;;;;;2248862;61;20361;-63
2022/02/18 07:06:22;0.00;0.00;0.62;0.00;0.00;0.62;1.70;1.20;;;20.20;25.90;;;;;;2249254;61;20364;-61
2022/02/18 07:09:11;0.00;0.00;0.62;0.00;0.00;0.62;2.20;1.07;;;20.20;25.80;;;;;;2249459;61;20383;-62
2022/02/18 07:11:55;0.00;0.00;0.62;0.00;0.00;0.62;2.90;1.60;;;20.20;25.80;;;;;;2249654;61;20401;-61
2022/02/18 07:14:40;0.00;0.00;0.62;0.00;0.00;0.62;2.40;1.13;;;20.20;25.80;;;;;;2249271;61;20365;-61
2022/02/18 07:17:27;0.00;0.00;0.62;0.00;0.00;0.62;2.20;1.23;;;20.30;25.90;;;;;;2248930;61;20444;-61
2022/02/18 07:20:16;0.00;0.00;0.62;0.00;0.00;0.62;1.60;1.00;;;20.20;25.80;;;;;;2249729;61;20388;-63
2022/02/18 07:23:02;0.00;0.00;0.62;0.00;0.00;0.62;3.30;1.20;;;20.30;25.90;;;;;;2249154;61;20364;-61
2022/02/18 07:25:46;0.00;0.00;0.62;0.00;0.00;0.62;2.20;1.20;;;20.30;25.90;;;;;;2249052;61;20377;-61
2022/02/18 07:28:31;0.00;0.00;0.62;0.00;0.00;0.62;2.23;1.23;;;20.30;25.80;;;;;;2249087;61;20417;-63
2022/02/18 07:31:15;0.00;0.00;0.62;0.00;0.00;0.62;1.87;1.10;;;20.30;25.80;;;;;;2249663;61;20571;-61
2022/02/18 07:34:00;0.00;0.00;0.62;0.00;0.00;0.62;2.00;1.10;;;20.30;25.80;;;;;;2249835;61;20360;-62
2022/02/18 07:36:44;0.00;0.00;0.62;0.00;0.00;0.62;3.77;1.40;;;20.40;25.90;;;;;;2249304;61;20361;-63
2022/02/18 07:39:30;0.00;0.00;0.62;0.00;0.00;0.62;2.03;1.17;;;20.40;25.90;;;;;;2249075;61;20435;-60
2022/02/18 07:42:14;0.00;0.00;0.62;0.00;0.00;0.62;1.90;1.10;;;20.40;25.90;;;;;;2249621;61;20738;-61
2022/02/18 07:45:04;0.00;0.00;0.62;0.00;0.00;0.62;2.10;1.20;;;20.40;25.90;;;;;;2248758;61;20365;-64
2022/02/18 07:47:52;0.00;0.00;0.62;0.00;0.00;0.62;3.33;1.10;;;20.40;25.90;;;;;;2248794;61;20583;-63
2022/02/18 07:50:37;0.00;0.00;0.62;0.00;0.00;0.62;2.97;1.40;;;20.40;25.90;;;;;;2249273;61;20361;-63
2022/02/18 07:53:22;0.00;0.00;0.62;0.00;0.00;0.62;1.70;1.00;;;20.40;25.90;;;;;;2248993;61;20391;-62
2022/02/18 07:56:09;0.00;0.00;0.62;0.00;0.00;0.62;1.93;1.33;;;20.40;25.90;;;;;;2249633;61;20497;-62
2022/02/18 07:58:53;0.00;0.00;0.62;0.00;0.00;0.62;2.13;0.97;;;20.40;25.90;;;;;;2248979;61;20389;-62
2022/02/18 08:01:38;0.00;0.00;0.62;0.00;0.00;0.62;2.13;1.40;;;20.50;25.90;;;;;;2248884;61;20369;-63
2022/02/18 08:04:23;0.00;0.00;0.62;0.00;0.00;0.62;1.93;1.20;;;20.50;25.90;;;;;;2250471;61;20360;-63
2022/02/18 08:07:07;0.00;0.00;0.62;0.00;0.00;0.62;1.70;1.10;;;20.50;25.90;;;;;;2249535;61;20440;-62
2022/02/18 08:09:52;0.00;0.00;0.62;0.00;0.00;0.62;1.70;1.10;;;20.50;25.90;;;;;;2249614;61;20380;-63
2022/02/18 08:12:38;0.00;0.00;0.62;0.00;0.00;0.62;3.20;1.20;;;20.50;25.90;;;;;;2250156;61;20767;-63
2022/02/18 08:15:23;0.00;0.00;0.62;0.00;0.00;0.62;1.90;1.00;;;20.50;25.90;;;;;;2250002;61;20371;-63
2022/02/18 08:18:07;0.00;0.00;0.62;0.00;0.00;0.62;1.97;1.17;;;20.60;26.00;;;;;;2249632;61;20427;-63
2022/02/18 08:20:52;0.00;0.00;0.62;0.00;0.00;0.62;1.70;1.20;;;20.60;26.00;;;;;;2249977;61;20408;-63
2022/02/18 08:23:36;0.00;0.00;0.62;0.00;0.00;0.62;1.97;1.07;;;20.60;25.90;;;;;;2249302;61;20452;-62
2022/02/18 08:26:21;0.00;0.00;0.62;0.00;0.00;0.62;2.67;1.00;;;20.60;25.90;;;;;;2250029;61;20365;-62
2022/02/18 08:29:07;0.00;0.00;0.62;0.00;0.00;0.62;1.83;1.10;;;20.60;26.00;;;;;;2249351;61;20380;-63
2022/02/18 08:31:54;0.00;0.00;0.62;0.00;0.00;0.62;1.73;1.23;;;20.60;25.90;;;;;;2249795;61;20415;-63
2022/02/18 08:34:38;0.00;0.00;0.62;0.00;0.00;0.62;2.10;1.10;;;20.60;25.90;;;;;;2250377;61;20385;-62
2022/02/18 08:37:24;0.00;0.00;0.62;0.00;0.00;0.62;1.40;0.80;;;20.60;25.90;;;;;;2249741;61;20368;-63
2022/02/18 08:40:10;0.00;0.00;0.62;0.00;0.00;0.62;1.50;0.83;;;20.70;26.00;;;;;;2249781;61;20423;-62
2022/02/18 08:42:55;0.00;0.00;0.62;0.00;0.00;0.62;1.50;1.00;;;20.60;25.90;;;;;;2249760;61;20460;-63
2022/02/18 08:45:43;0.00;0.00;0.62;0.00;0.00;0.62;1.83;0.90;;;20.70;26.00;;;;;;2249404;61;20365;-63
2022/02/18 08:48:27;0.00;0.00;0.62;0.00;0.00;0.62;1.90;1.00;;;20.70;26.00;;;;;;2250184;61;20732;-62
2022/02/18 08:51:12;0.00;0.00;0.62;0.00;0.00;0.62;2.00;1.20;;;20.70;26.00;;;;;;2249424;61;20411;-63
2022/02/18 08:53:56;0.00;0.00;0.62;0.00;0.00;0.62;1.60;0.90;;;20.70;26.00;;;;;;2249715;61;20873;-63
2022/02/18 08:56:42;0.00;0.00;0.62;0.00;0.00;0.62;3.37;1.30;;;20.70;25.90;;;;;;2250309;61;20364;-62
2022/02/18 08:59:26;0.00;0.00;0.62;0.00;0.00;0.62;1.80;0.90;;;20.70;26.00;;;;;;2249555;61;20376;-63
2022/02/18 09:02:13;0.00;0.00;0.62;0.00;0.00;0.62;2.20;1.20;;;20.70;25.90;;;;;;2249724;61;20408;-61
2022/02/18 09:04:58;0.00;0.00;0.62;0.00;0.00;0.62;2.53;1.07;;;20.70;25.90;;;;;;2249498;61;20477;-62
2022/02/18 09:07:44;0.00;0.00;0.62;0.00;0.00;0.62;1.80;0.90;;;20.80;26.00;;;;;;2249212;61;20369;-61
2022/02/18 09:10:28;0.00;0.00;0.62;0.00;0.00;0.62;2.43;1.03;;;20.80;26.00;;;;;;2250024;61;20431;-63
2022/02/18 09:13:14;0.00;0.00;0.62;0.00;0.00;0.62;2.20;1.13;;;20.80;26.00;;;;;;2249645;61;20388;-63
2022/02/18 09:15:58;0.00;0.00;0.62;0.00;0.00;0.62;2.80;1.10;;;20.80;26.00;;;;;;2249417;61;20360;-64
2022/02/18 09:19:03;0.00;0.00;0.62;0.00;0.00;0.62;1.57;0.80;;;20.80;25.90;;;;;;2249926;61;20443;-62
2022/02/18 09:21:48;0.00;0.00;0.62;0.00;0.00;0.62;1.30;0.70;;;20.80;26.00;;;;;;2250024;61;20583;-62
2022/02/18 09:24:32;0.00;0.00;0.62;0.00;0.00;0.62;1.53;0.97;;;20.80;26.00;;;;;;2249563;61;20373;-63
2022/02/18 09:27:17;0.00;0.00;0.62;0.00;0.00;0.62;1.80;1.00;;;20.80;25.90;;;;;;2249377;61;20440;-64
2022/02/18 09:30:03;0.00;0.00;0.62;0.00;0.00;0.62;1.60;0.97;;;20.80;26.00;;;;;;2249392;61;20736;-63
2022/02/18 09:32:48;0.00;0.00;0.62;0.00;0.00;0.62;1.77;0.90;;;20.80;25.90;;;;;;2249875;61;20463;-62
2022/02/18 09:35:34;0.00;0.00;0.62;0.00;0.00;0.62;1.73;0.80;;;20.80;25.90;;;;;;2249446;61;20369;-63
2022/02/18 09:38:19;0.00;0.00;0.62;0.00;0.00;0.62;1.53;0.90;;;20.90;26.00;;;;;;2248934;61;20372;-63
2022/02/18 09:41:06;0.00;0.00;0.62;0.00;0.00;0.62;1.30;0.80;;;20.90;26.00;;;;;;2249838;61;20583;-61
2022/02/18 09:43:53;0.00;0.00;0.62;0.00;0.00;0.62;1.60;0.90;;;20.90;26.00;;;;;;2249707;61;20360;-61
2022/02/18 09:46:39;0.00;0.00;0.62;0.00;0.00;0.62;1.50;0.80;;;20.90;26.00;;;;;;2249505;61;20389;-63
2022/02/18 09:49:25;0.00;0.00;0.62;0.00;0.00;0.62;1.73;1.13;;;20.90;26.00;;;;;;2249379;61;20612;-62
2022/02/18 09:52:13;0.00;0.00;0.62;0.00;0.00;0.62;2.40;1.07;;;20.90;26.00;;;;;;2249225;61;20602;-62
2022/02/18 09:54:58;0.00;0.00;0.62;0.00;0.00;0.62;2.13;1.17;;;20.90;26.00;;;;;;2249992;61;20388;-63
2022/02/18 09:57:45;0.00;0.00;0.62;0.00;0.00;0.62;2.20;1.30;;;20.90;26.00;;;;;;2249185;61;20356;-61
2022/02/18 10:00:30;0.00;0.00;0.62;0.00;0.00;0.62;3.10;0.93;;;20.90;25.90;;;;;;2249508;61;20383;-63
2022/02/18 10:03:15;0.00;0.00;0.62;0.00;0.00;0.62;2.47;1.00;;;20.90;25.90;;;;;;2249934;61;20352;-63
2022/02/18 10:06:00;0.00;0.00;0.62;0.00;0.00;0.62;2.20;0.80;;;20.90;25.90;;;;;;2249494;61;20361;-63
2022/02/18 10:08:50;0.00;0.00;0.62;0.00;0.00;0.62;2.13;1.00;;;21.00;26.00;;;;;;2249080;61;20389;-63
2022/02/18 10:11:51;0.00;0.00;0.62;0.00;0.00;0.62;1.60;1.03;;;21.00;26.00;;;;;;2249297;61;20369;-63
2022/02/18 10:14:56;0.00;0.00;0.62;0.00;0.00;0.62;1.83;0.80;;;21.00;26.00;;;;;;2249271;61;20424;-62
2022/02/18 10:17:43;0.00;0.00;0.62;0.00;0.00;0.62;2.17;0.97;;;21.00;26.00;;;;;;2249763;61;20365;-63
2022/02/18 10:20:29;0.00;0.00;0.62;0.00;0.00;0.62;1.70;0.93;;;21.00;26.00;;;;;;2249354;61;20411;-61
2022/02/18 10:23:13;0.00;0.00;0.62;0.00;0.00;0.62;1.40;0.90;;;21.00;26.00;;;;;;2249212;61;20577;-62
2022/02/18 10:26:02;0.00;0.00;0.62;0.00;0.00;0.62;1.90;0.93;;;21.00;25.90;;;;;;2249365;61;20424;-61
2022/02/18 10:28:56;0.00;0.00;0.62;0.00;0.00;0.62;2.13;1.27;;;21.00;26.00;;;;;;2249529;61;20385;-61
2022/02/18 10:31:41;0.00;0.00;0.62;0.00;0.00;0.62;2.10;1.07;;;21.00;26.40;;;;;;2249472;61;20373;-64
2022/02/18 10:34:29;0.00;0.00;0.62;0.00;0.00;0.62;1.80;0.90;;;21.00;25.90;;;;;;2249536;61;20424;-63
2022/02/18 10:37:14;0.00;0.00;0.62;0.00;0.00;0.62;1.43;0.80;;;21.00;25.90;;;;;;2248641;61;20704;-61
2022/02/18 10:40:08;0.00;0.00;0.62;0.00;0.00;0.62;2.77;1.10;;;21.00;25.90;;;;;;2249969;61;20388;-64
2022/02/18 10:43:05;0.00;0.00;0.62;0.00;0.00;0.62;2.57;1.00;;;21.00;25.90;;;;;;2249385;61;20432;-62
2022/02/18 10:46:01;0.00;0.00;0.62;0.00;0.00;0.62;1.60;0.80;;;21.00;25.90;;;;;;2249355;61;20736;-61
2022/02/18 10:48:48;0.00;0.00;0.62;0.00;0.00;0.62;2.20;0.90;;;21.00;25.90;;;;;;2249331;61;20641;-63
2022/02/18 10:51:42;0.00;0.00;0.62;0.00;0.00;0.62;1.57;0.90;;;21.00;25.90;;;;;;2248898;61;20392;-63
2022/02/18 10:54:31;0.00;0.00;0.62;0.00;0.00;0.62;2.30;1.10;;;21.10;26.00;;;;;;2250000;61;20372;-63
2022/02/18 10:57:18;0.00;0.00;0.62;0.00;0.00;0.62;1.57;1.00;;;21.00;25.90;;;;;;2249129;61;20361;-63